sensor_id;sensor_type;location;lat;lon;timestamp;P1;durP1;ratioP1;P2;durP2;ratioP2
71125;SDS011;58785;55.566;38.058;2023-01-23T00:00:38;24.00;;;5.23;;
71125;SDS011;58785;55.566;38.058;2023-01-23T00:03:06;19.92;;;5.95;;
71125;SDS011;58785;55.566;38.058;2023-01-23T00:05:31;19.33;;;6.87;;
71125;SDS011;58785;55.566;38.058;2023-01-23T00:07:57;19.27;;;6.07;;
71125;SDS011;58785;55.566;38.058;2023-01-23T00:10:23;16.80;;;5.70;;
71125;SDS011;58785;55.566;38.058;2023-01-23T00:12:48;19.33;;;5.10;;
71125;SDS011;58785;55.566;38.058;2023-01-23T00:15:14;19.60;;;6.38;;
71125;SDS011;58785;55.566;38.058;2023-01-23T00:17:40;21.10;;;7.18;;
71125;SDS011;58785;55.566;38.058;2023-01-23T00:20:10;16.93;;;7.07;;
71125;SDS011;58785;55.566;38.058;2023-01-23T00:22:36;22.17;;;6.35;;
71125;SDS011;58785;55.566;38.058;2023-01-23T00:25:03;20.80;;;7.00;;
71125;SDS011;58785;55.566;38.058;2023-01-23T00:27:29;21.58;;;6.30;;
71125;SDS011;58785;55.566;38.058;2023-01-23T00:29:55;25.13;;;7.43;;
71125;SDS011;58785;55.566;38.058;2023-01-23T00:32:21;24.17;;;6.10;;
71125;SDS011;58785;55.566;38.058;2023-01-23T00:34:47;22.00;;;6.07;;
71125;SDS011;58785;55.566;38.058;2023-01-23T00:37:12;25.33;;;6.93;;
71125;SDS011;58785;55.566;38.058;2023-01-23T00:39:38;24.70;;;6.78;;
71125;SDS011;58785;55.566;38.058;2023-01-23T00:42:05;25.38;;;6.80;;
71125;SDS011;58785;55.566;38.058;2023-01-23T00:44:31;24.53;;;6.70;;
71125;SDS011;58785;55.566;38.058;2023-01-23T00:46:56;22.50;;;6.47;;
71125;SDS011;58785;55.566;38.058;2023-01-23T00:49:23;20.05;;;5.63;;
71125;SDS011;58785;55.566;38.058;2023-01-23T00:51:48;19.33;;;6.50;;
71125;SDS011;58785;55.566;38.058;2023-01-23T00:54:15;23.48;;;6.53;;
71125;SDS011;58785;55.566;38.058;2023-01-23T00:56:41;18.65;;;6.32;;
71125;SDS011;58785;55.566;38.058;2023-01-23T00:59:07;20.33;;;6.00;;
71125;SDS011;58785;55.566;38.058;2023-01-23T01:01:33;19.67;;;6.43;;
71125;SDS011;58785;55.566;38.058;2023-01-23T01:03:59;22.35;;;5.88;;
71125;SDS011;58785;55.566;38.058;2023-01-23T01:06:25;22.20;;;7.43;;
71125;SDS011;58785;55.566;38.058;2023-01-23T01:08:52;23.67;;;6.68;;
71125;SDS011;58785;55.566;38.058;2023-01-23T01:11:18;24.65;;;7.63;;
71125;SDS011;58785;55.566;38.058;2023-01-23T01:13:44;19.63;;;5.63;;
71125;SDS011;58785;55.566;38.058;2023-01-23T01:16:09;28.57;;;7.17;;
71125;SDS011;58785;55.566;38.058;2023-01-23T01:18:35;18.63;;;6.23;;
71125;SDS011;58785;55.566;38.058;2023-01-23T01:21:09;24.77;;;6.80;;
71125;SDS011;58785;55.566;38.058;2023-01-23T01:23:36;24.13;;;6.82;;
71125;SDS011;58785;55.566;38.058;2023-01-23T01:26:03;20.30;;;5.85;;
71125;SDS011;58785;55.566;38.058;2023-01-23T01:28:29;27.03;;;7.63;;
71125;SDS011;58785;55.566;38.058;2023-01-23T01:30:57;25.83;;;7.85;;
71125;SDS011;58785;55.566;38.058;2023-01-23T01:33:27;26.52;;;8.20;;
71125;SDS011;58785;55.566;38.058;2023-01-23T01:35:53;25.25;;;7.90;;
71125;SDS011;58785;55.566;38.058;2023-01-23T01:38:21;24.30;;;6.57;;
71125;SDS011;58785;55.566;38.058;2023-01-23T01:40:47;27.10;;;8.63;;
71125;SDS011;58785;55.566;38.058;2023-01-23T01:43:17;25.80;;;8.02;;
71125;SDS011;58785;55.566;38.058;2023-01-23T01:48:35;23.05;;;6.22;;
71125;SDS011;58785;55.566;38.058;2023-01-23T01:51:03;30.53;;;8.33;;
71125;SDS011;58785;55.566;38.058;2023-01-23T01:53:35;21.27;;;7.43;;
71125;SDS011;58785;55.566;38.058;2023-01-23T01:56:02;27.67;;;7.72;;
71125;SDS011;58785;55.566;38.058;2023-01-23T01:58:28;28.35;;;7.03;;
71125;SDS011;58785;55.566;38.058;2023-01-23T02:00:54;24.55;;;7.07;;
71125;SDS011;58785;55.566;38.058;2023-01-23T02:03:21;28.23;;;7.53;;
71125;SDS011;58785;55.566;38.058;2023-01-23T02:05:48;28.00;;;7.88;;
71125;SDS011;58785;55.566;38.058;2023-01-23T02:10:56;28.40;;;7.93;;
71125;SDS011;58785;55.566;38.058;2023-01-23T02:13:23;23.67;;;6.30;;
71125;SDS011;58785;55.566;38.058;2023-01-23T02:15:59;24.03;;;6.10;;
71125;SDS011;58785;55.566;38.058;2023-01-23T02:18:30;25.75;;;6.65;;
71125;SDS011;58785;55.566;38.058;2023-01-23T02:21:06;24.38;;;7.72;;
71125;SDS011;58785;55.566;38.058;2023-01-23T02:26:15;30.90;;;8.77;;
71125;SDS011;58785;55.566;38.058;2023-01-23T02:28:44;25.73;;;7.27;;
71125;SDS011;58785;55.566;38.058;2023-01-23T02:31:15;21.63;;;8.57;;
71125;SDS011;58785;55.566;38.058;2023-01-23T02:33:42;30.70;;;8.38;;
71125;SDS011;58785;55.566;38.058;2023-01-23T02:36:10;27.75;;;5.68;;
71125;SDS011;58785;55.566;38.058;2023-01-23T02:39:19;23.57;;;6.70;;
71125;SDS011;58785;55.566;38.058;2023-01-23T02:41:34;28.35;;;8.35;;
71125;SDS011;58785;55.566;38.058;2023-01-23T02:44:04;26.23;;;7.65;;
71125;SDS011;58785;55.566;38.058;2023-01-23T02:46:55;24.73;;;7.22;;
71125;SDS011;58785;55.566;38.058;2023-01-23T02:49:23;29.35;;;8.85;;
71125;SDS011;58785;55.566;38.058;2023-01-23T02:51:49;35.00;;;9.40;;
71125;SDS011;58785;55.566;38.058;2023-01-23T02:54:16;31.27;;;8.27;;
71125;SDS011;58785;55.566;38.058;2023-01-23T02:56:42;29.45;;;9.75;;
71125;SDS011;58785;55.566;38.058;2023-01-23T02:59:08;26.45;;;8.85;;
71125;SDS011;58785;55.566;38.058;2023-01-23T03:01:53;29.57;;;9.53;;
71125;SDS011;58785;55.566;38.058;2023-01-23T03:04:18;33.05;;;9.88;;
71125;SDS011;58785;55.566;38.058;2023-01-23T03:06:44;36.30;;;9.67;;
71125;SDS011;58785;55.566;38.058;2023-01-23T03:09:12;28.87;;;8.40;;
71125;SDS011;58785;55.566;38.058;2023-01-23T03:11:40;31.60;;;10.52;;
71125;SDS011;58785;55.566;38.058;2023-01-23T03:14:08;34.85;;;9.60;;
71125;SDS011;58785;55.566;38.058;2023-01-23T03:16:35;35.08;;;10.70;;
71125;SDS011;58785;55.566;38.058;2023-01-23T03:19:05;34.37;;;9.20;;
71125;SDS011;58785;55.566;38.058;2023-01-23T03:21:34;37.70;;;11.18;;
71125;SDS011;58785;55.566;38.058;2023-01-23T03:24:02;36.40;;;10.82;;
71125;SDS011;58785;55.566;38.058;2023-01-23T03:26:29;39.63;;;11.07;;
71125;SDS011;58785;55.566;38.058;2023-01-23T03:28:55;37.23;;;10.80;;
71125;SDS011;58785;55.566;38.058;2023-01-23T03:31:39;31.52;;;9.55;;
71125;SDS011;58785;55.566;38.058;2023-01-23T03:34:04;38.72;;;9.93;;
71125;SDS011;58785;55.566;38.058;2023-01-23T03:36:30;35.33;;;10.53;;
71125;SDS011;58785;55.566;38.058;2023-01-23T03:38:56;38.83;;;11.02;;
71125;SDS011;58785;55.566;38.058;2023-01-23T03:41:40;37.88;;;9.80;;
71125;SDS011;58785;55.566;38.058;2023-01-23T03:44:06;41.43;;;10.20;;
71125;SDS011;58785;55.566;38.058;2023-01-23T03:46:33;31.00;;;10.40;;
71125;SDS011;58785;55.566;38.058;2023-01-23T03:48:59;40.28;;;12.55;;
71125;SDS011;58785;55.566;38.058;2023-01-23T03:51:25;31.30;;;11.03;;
71125;SDS011;58785;55.566;38.058;2023-01-23T03:53:50;45.13;;;10.25;;
71125;SDS011;58785;55.566;38.058;2023-01-23T03:56:17;42.13;;;10.10;;
71125;SDS011;58785;55.566;38.058;2023-01-23T03:58:42;37.85;;;10.52;;
71125;SDS011;58785;55.566;38.058;2023-01-23T04:01:08;30.25;;;9.20;;
71125;SDS011;58785;55.566;38.058;2023-01-23T04:03:34;28.70;;;8.17;;
71125;SDS011;58785;55.566;38.058;2023-01-23T04:06:00;27.75;;;9.02;;
71125;SDS011;58785;55.566;38.058;2023-01-23T04:08:26;52.53;;;11.38;;
71125;SDS011;58785;55.566;38.058;2023-01-23T04:11:03;39.78;;;11.02;;
71125;SDS011;58785;55.566;38.058;2023-01-23T04:13:30;37.15;;;13.05;;
71125;SDS011;58785;55.566;38.058;2023-01-23T04:15:56;41.77;;;13.07;;
71125;SDS011;58785;55.566;38.058;2023-01-23T04:18:22;39.50;;;13.82;;
71125;SDS011;58785;55.566;38.058;2023-01-23T04:20:48;35.90;;;12.10;;
71125;SDS011;58785;55.566;38.058;2023-01-23T04:23:13;31.80;;;10.88;;
71125;SDS011;58785;55.566;38.058;2023-01-23T04:25:39;31.13;;;9.10;;
71125;SDS011;58785;55.566;38.058;2023-01-23T04:28:04;41.35;;;12.27;;
71125;SDS011;58785;55.566;38.058;2023-01-23T04:30:30;44.47;;;11.13;;
71125;SDS011;58785;55.566;38.058;2023-01-23T04:32:56;30.33;;;8.73;;
71125;SDS011;58785;55.566;38.058;2023-01-23T04:35:21;38.17;;;10.67;;
71125;SDS011;58785;55.566;38.058;2023-01-23T04:37:47;42.13;;;11.33;;
71125;SDS011;58785;55.566;38.058;2023-01-23T04:40:13;30.10;;;9.83;;
71125;SDS011;58785;55.566;38.058;2023-01-23T04:42:39;37.78;;;12.05;;
71125;SDS011;58785;55.566;38.058;2023-01-23T04:45:05;38.73;;;11.83;;
71125;SDS011;58785;55.566;38.058;2023-01-23T04:47:32;29.92;;;10.45;;
71125;SDS011;58785;55.566;38.058;2023-01-23T04:49:58;30.83;;;11.07;;
71125;SDS011;58785;55.566;38.058;2023-01-23T04:52:24;28.93;;;10.17;;
71125;SDS011;58785;55.566;38.058;2023-01-23T04:54:50;35.30;;;10.43;;
71125;SDS011;58785;55.566;38.058;2023-01-23T04:57:15;29.23;;;8.73;;
71125;SDS011;58785;55.566;38.058;2023-01-23T04:59:41;39.20;;;8.97;;
71125;SDS011;58785;55.566;38.058;2023-01-23T05:02:06;28.40;;;8.73;;
71125;SDS011;58785;55.566;38.058;2023-01-23T05:04:32;23.25;;;6.85;;
71125;SDS011;58785;55.566;38.058;2023-01-23T05:06:58;16.33;;;4.93;;
71125;SDS011;58785;55.566;38.058;2023-01-23T05:09:23;16.52;;;5.63;;
71125;SDS011;58785;55.566;38.058;2023-01-23T05:11:49;22.03;;;6.37;;
71125;SDS011;58785;55.566;38.058;2023-01-23T05:14:14;18.83;;;6.47;;
71125;SDS011;58785;55.566;38.058;2023-01-23T05:16:40;22.13;;;6.85;;
71125;SDS011;58785;55.566;38.058;2023-01-23T05:19:06;17.80;;;6.20;;
71125;SDS011;58785;55.566;38.058;2023-01-23T05:21:31;18.27;;;5.32;;
71125;SDS011;58785;55.566;38.058;2023-01-23T05:23:57;23.43;;;5.47;;
71125;SDS011;58785;55.566;38.058;2023-01-23T05:26:22;19.27;;;5.17;;
71125;SDS011;58785;55.566;38.058;2023-01-23T05:28:48;19.70;;;5.40;;
71125;SDS011;58785;55.566;38.058;2023-01-23T05:31:14;17.67;;;5.87;;
71125;SDS011;58785;55.566;38.058;2023-01-23T05:33:39;15.85;;;4.45;;
71125;SDS011;58785;55.566;38.058;2023-01-23T05:36:05;10.77;;;3.53;;
71125;SDS011;58785;55.566;38.058;2023-01-23T05:38:31;10.40;;;3.35;;
71125;SDS011;58785;55.566;38.058;2023-01-23T05:40:57;10.13;;;2.53;;
71125;SDS011;58785;55.566;38.058;2023-01-23T05:43:23;11.50;;;3.57;;
71125;SDS011;58785;55.566;38.058;2023-01-23T05:45:48;11.80;;;3.80;;
71125;SDS011;58785;55.566;38.058;2023-01-23T05:48:14;12.23;;;4.22;;
71125;SDS011;58785;55.566;38.058;2023-01-23T05:50:39;14.47;;;4.70;;
71125;SDS011;58785;55.566;38.058;2023-01-23T05:53:05;9.18;;;3.03;;
71125;SDS011;58785;55.566;38.058;2023-01-23T05:55:31;12.30;;;3.50;;
71125;SDS011;58785;55.566;38.058;2023-01-23T05:57:57;8.20;;;2.55;;
71125;SDS011;58785;55.566;38.058;2023-01-23T06:00:23;8.63;;;2.70;;
71125;SDS011;58785;55.566;38.058;2023-01-23T06:02:48;9.27;;;2.67;;
71125;SDS011;58785;55.566;38.058;2023-01-23T06:05:14;11.02;;;3.13;;
71125;SDS011;58785;55.566;38.058;2023-01-23T06:07:39;8.07;;;2.73;;
71125;SDS011;58785;55.566;38.058;2023-01-23T06:10:05;13.90;;;3.53;;
71125;SDS011;58785;55.566;38.058;2023-01-23T06:12:31;8.68;;;2.40;;
71125;SDS011;58785;55.566;38.058;2023-01-23T06:14:57;12.23;;;2.75;;
71125;SDS011;58785;55.566;38.058;2023-01-23T06:17:23;9.37;;;3.10;;
71125;SDS011;58785;55.566;38.058;2023-01-23T06:19:48;8.93;;;2.77;;
71125;SDS011;58785;55.566;38.058;2023-01-23T06:22:14;10.38;;;2.65;;
71125;SDS011;58785;55.566;38.058;2023-01-23T06:24:39;7.47;;;2.80;;
71125;SDS011;58785;55.566;38.058;2023-01-23T06:27:05;10.13;;;2.67;;
71125;SDS011;58785;55.566;38.058;2023-01-23T06:29:36;6.80;;;1.83;;
71125;SDS011;58785;55.566;38.058;2023-01-23T06:32:02;8.00;;;2.60;;
71125;SDS011;58785;55.566;38.058;2023-01-23T06:34:28;8.32;;;2.30;;
71125;SDS011;58785;55.566;38.058;2023-01-23T06:36:54;8.93;;;2.50;;
71125;SDS011;58785;55.566;38.058;2023-01-23T06:39:20;8.87;;;3.03;;
71125;SDS011;58785;55.566;38.058;2023-01-23T06:41:45;7.63;;;2.33;;
71125;SDS011;58785;55.566;38.058;2023-01-23T06:44:11;9.73;;;2.38;;
71125;SDS011;58785;55.566;38.058;2023-01-23T06:46:37;7.93;;;2.97;;
71125;SDS011;58785;55.566;38.058;2023-01-23T06:49:02;7.95;;;2.00;;
71125;SDS011;58785;55.566;38.058;2023-01-23T06:51:29;9.32;;;2.00;;
71125;SDS011;58785;55.566;38.058;2023-01-23T06:53:55;7.77;;;1.87;;
71125;SDS011;58785;55.566;38.058;2023-01-23T06:56:20;8.30;;;2.07;;
71125;SDS011;58785;55.566;38.058;2023-01-23T06:58:46;8.80;;;2.00;;
71125;SDS011;58785;55.566;38.058;2023-01-23T07:01:14;7.72;;;2.40;;
71125;SDS011;58785;55.566;38.058;2023-01-23T07:03:41;6.75;;;1.75;;
71125;SDS011;58785;55.566;38.058;2023-01-23T07:06:09;7.32;;;1.85;;
71125;SDS011;58785;55.566;38.058;2023-01-23T07:08:36;6.87;;;1.70;;
71125;SDS011;58785;55.566;38.058;2023-01-23T07:11:02;8.60;;;2.75;;
71125;SDS011;58785;55.566;38.058;2023-01-23T07:13:28;9.98;;;2.03;;
71125;SDS011;58785;55.566;38.058;2023-01-23T07:15:54;7.55;;;2.28;;
71125;SDS011;58785;55.566;38.058;2023-01-23T07:18:19;8.67;;;2.53;;
71125;SDS011;58785;55.566;38.058;2023-01-23T07:20:46;7.88;;;2.55;;
71125;SDS011;58785;55.566;38.058;2023-01-23T07:23:13;8.40;;;2.40;;
71125;SDS011;58785;55.566;38.058;2023-01-23T07:25:39;8.23;;;2.50;;
71125;SDS011;58785;55.566;38.058;2023-01-23T07:28:05;8.93;;;2.72;;
71125;SDS011;58785;55.566;38.058;2023-01-23T07:30:31;10.18;;;2.30;;
71125;SDS011;58785;55.566;38.058;2023-01-23T07:32:57;7.40;;;2.67;;
71125;SDS011;58785;55.566;38.058;2023-01-23T07:35:24;7.95;;;2.50;;
71125;SDS011;58785;55.566;38.058;2023-01-23T07:37:50;10.13;;;3.35;;
71125;SDS011;58785;55.566;38.058;2023-01-23T07:40:16;11.40;;;3.00;;
71125;SDS011;58785;55.566;38.058;2023-01-23T07:42:42;5.87;;;1.87;;
71125;SDS011;58785;55.566;38.058;2023-01-23T07:45:08;8.80;;;2.78;;
71125;SDS011;58785;55.566;38.058;2023-01-23T07:47:35;7.78;;;2.75;;
71125;SDS011;58785;55.566;38.058;2023-01-23T07:50:01;10.07;;;2.90;;
71125;SDS011;58785;55.566;38.058;2023-01-23T07:52:28;11.07;;;2.80;;
71125;SDS011;58785;55.566;38.058;2023-01-23T07:54:54;9.50;;;3.00;;
71125;SDS011;58785;55.566;38.058;2023-01-23T07:57:20;10.00;;;3.77;;
71125;SDS011;58785;55.566;38.058;2023-01-23T07:59:46;11.93;;;3.30;;
71125;SDS011;58785;55.566;38.058;2023-01-23T08:02:11;9.53;;;2.97;;
71125;SDS011;58785;55.566;38.058;2023-01-23T08:04:37;10.13;;;2.95;;
71125;SDS011;58785;55.566;38.058;2023-01-23T08:07:02;9.27;;;2.60;;
71125;SDS011;58785;55.566;38.058;2023-01-23T08:09:28;11.35;;;2.80;;
71125;SDS011;58785;55.566;38.058;2023-01-23T08:11:54;11.63;;;3.43;;
71125;SDS011;58785;55.566;38.058;2023-01-23T08:14:19;7.97;;;2.92;;
71125;SDS011;58785;55.566;38.058;2023-01-23T08:16:51;10.17;;;3.30;;
71125;SDS011;58785;55.566;38.058;2023-01-23T08:19:18;10.75;;;3.63;;
71125;SDS011;58785;55.566;38.058;2023-01-23T08:21:44;10.90;;;3.17;;
71125;SDS011;58785;55.566;38.058;2023-01-23T08:24:10;11.55;;;3.63;;
71125;SDS011;58785;55.566;38.058;2023-01-23T08:26:37;12.88;;;4.43;;
71125;SDS011;58785;55.566;38.058;2023-01-23T08:29:03;12.65;;;3.83;;
71125;SDS011;58785;55.566;38.058;2023-01-23T08:31:28;10.50;;;4.07;;
71125;SDS011;58785;55.566;38.058;2023-01-23T08:33:54;16.93;;;4.53;;
71125;SDS011;58785;55.566;38.058;2023-01-23T08:36:20;11.98;;;4.05;;
71125;SDS011;58785;55.566;38.058;2023-01-23T08:38:46;16.75;;;5.03;;
71125;SDS011;58785;55.566;38.058;2023-01-23T08:41:12;11.43;;;3.53;;
71125;SDS011;58785;55.566;38.058;2023-01-23T08:43:38;13.35;;;5.13;;
71125;SDS011;58785;55.566;38.058;2023-01-23T08:46:07;16.17;;;4.32;;
71125;SDS011;58785;55.566;38.058;2023-01-23T08:48:33;17.00;;;4.65;;
71125;SDS011;58785;55.566;38.058;2023-01-23T08:51:01;14.80;;;4.07;;
71125;SDS011;58785;55.566;38.058;2023-01-23T08:53:29;12.77;;;4.03;;
71125;SDS011;58785;55.566;38.058;2023-01-23T08:55:59;15.55;;;4.15;;
71125;SDS011;58785;55.566;38.058;2023-01-23T08:58:27;13.35;;;4.55;;
71125;SDS011;58785;55.566;38.058;2023-01-23T09:00:52;12.87;;;4.73;;
71125;SDS011;58785;55.566;38.058;2023-01-23T09:03:18;19.20;;;5.55;;
71125;SDS011;58785;55.566;38.058;2023-01-23T09:05:44;13.67;;;4.50;;
71125;SDS011;58785;55.566;38.058;2023-01-23T09:08:09;19.17;;;5.63;;
71125;SDS011;58785;55.566;38.058;2023-01-23T09:10:35;15.13;;;6.00;;
71125;SDS011;58785;55.566;38.058;2023-01-23T09:13:03;16.98;;;6.05;;
71125;SDS011;58785;55.566;38.058;2023-01-23T09:15:29;19.63;;;6.45;;
71125;SDS011;58785;55.566;38.058;2023-01-23T09:17:55;13.43;;;4.93;;
71125;SDS011;58785;55.566;38.058;2023-01-23T09:20:20;15.20;;;5.22;;
71125;SDS011;58785;55.566;38.058;2023-01-23T09:22:46;15.60;;;5.53;;
71125;SDS011;58785;55.566;38.058;2023-01-23T09:25:12;16.00;;;5.57;;
71125;SDS011;58785;55.566;38.058;2023-01-23T09:27:39;15.52;;;4.95;;
71125;SDS011;58785;55.566;38.058;2023-01-23T09:30:05;14.37;;;5.00;;
71125;SDS011;58785;55.566;38.058;2023-01-23T09:32:31;14.07;;;5.03;;
71125;SDS011;58785;55.566;38.058;2023-01-23T09:34:57;17.70;;;5.53;;
71125;SDS011;58785;55.566;38.058;2023-01-23T09:37:22;14.93;;;5.23;;
71125;SDS011;58785;55.566;38.058;2023-01-23T09:39:48;15.65;;;6.00;;
71125;SDS011;58785;55.566;38.058;2023-01-23T09:42:21;17.97;;;5.13;;
71125;SDS011;58785;55.566;38.058;2023-01-23T09:45:00;16.88;;;5.70;;
71125;SDS011;58785;55.566;38.058;2023-01-23T09:47:42;14.13;;;4.28;;
71125;SDS011;58785;55.566;38.058;2023-01-23T09:50:14;14.38;;;4.95;;
71125;SDS011;58785;55.566;38.058;2023-01-23T09:52:49;15.40;;;5.05;;
71125;SDS011;58785;55.566;38.058;2023-01-23T09:58:04;18.05;;;5.93;;
71125;SDS011;58785;55.566;38.058;2023-01-23T10:00:40;20.02;;;5.93;;
71125;SDS011;58785;55.566;38.058;2023-01-23T10:03:10;16.47;;;5.83;;
71125;SDS011;58785;55.566;38.058;2023-01-23T10:08:44;16.27;;;5.45;;
71125;SDS011;58785;55.566;38.058;2023-01-23T10:17:16;17.37;;;5.10;;
71125;SDS011;58785;55.566;38.058;2023-01-23T10:20:02;21.27;;;6.10;;
71125;SDS011;58785;55.566;38.058;2023-01-23T10:25:21;17.13;;;5.40;;
71125;SDS011;58785;55.566;38.058;2023-01-23T10:27:51;16.95;;;5.60;;
71125;SDS011;58785;55.566;38.058;2023-01-23T10:30:27;17.07;;;7.00;;
71125;SDS011;58785;55.566;38.058;2023-01-23T10:35:43;21.95;;;5.93;;
71125;SDS011;58785;55.566;38.058;2023-01-23T10:40:59;17.23;;;5.55;;
71125;SDS011;58785;55.566;38.058;2023-01-23T10:43:45;17.40;;;5.27;;
71125;SDS011;58785;55.566;38.058;2023-01-23T10:46:14;20.27;;;5.25;;
71125;SDS011;58785;55.566;38.058;2023-01-23T10:48:43;17.15;;;5.53;;
71125;SDS011;58785;55.566;38.058;2023-01-23T10:54:01;24.90;;;5.55;;
71125;SDS011;58785;55.566;38.058;2023-01-23T10:56:27;17.40;;;5.07;;
71125;SDS011;58785;55.566;38.058;2023-01-23T10:58:55;20.92;;;6.72;;
71125;SDS011;58785;55.566;38.058;2023-01-23T11:01:25;24.75;;;6.47;;
71125;SDS011;58785;55.566;38.058;2023-01-23T11:03:55;20.85;;;6.97;;
71125;SDS011;58785;55.566;38.058;2023-01-23T11:06:26;23.55;;;7.45;;
71125;SDS011;58785;55.566;38.058;2023-01-23T11:08:56;23.43;;;6.30;;
71125;SDS011;58785;55.566;38.058;2023-01-23T11:11:25;26.38;;;7.22;;
71125;SDS011;58785;55.566;38.058;2023-01-23T11:14:29;22.13;;;6.57;;
71125;SDS011;58785;55.566;38.058;2023-01-23T11:16:57;19.05;;;5.88;;
71125;SDS011;58785;55.566;38.058;2023-01-23T11:19:29;24.38;;;7.78;;
71125;SDS011;58785;55.566;38.058;2023-01-23T11:21:58;22.50;;;8.03;;
71125;SDS011;58785;55.566;38.058;2023-01-23T11:27:14;24.58;;;8.00;;
71125;SDS011;58785;55.566;38.058;2023-01-23T11:29:52;23.70;;;7.53;;
71125;SDS011;58785;55.566;38.058;2023-01-23T11:32:30;21.13;;;6.70;;
71125;SDS011;58785;55.566;38.058;2023-01-23T11:35:05;25.70;;;7.37;;
71125;SDS011;58785;55.566;38.058;2023-01-23T11:37:39;23.45;;;6.63;;
71125;SDS011;58785;55.566;38.058;2023-01-23T11:40:12;22.33;;;7.15;;
71125;SDS011;58785;55.566;38.058;2023-01-23T11:42:41;21.00;;;6.72;;
71125;SDS011;58785;55.566;38.058;2023-01-23T11:48:27;22.73;;;7.13;;
71125;SDS011;58785;55.566;38.058;2023-01-23T11:51:02;18.45;;;6.72;;
71125;SDS011;58785;55.566;38.058;2023-01-23T11:56:22;26.52;;;7.50;;
71125;SDS011;58785;55.566;38.058;2023-01-23T12:09:46;76.43;;;20.80;;
71125;SDS011;58785;55.566;38.058;2023-01-23T12:15:35;25.00;;;7.47;;
71125;SDS011;58785;55.566;38.058;2023-01-23T12:26:52;25.55;;;5.97;;
71125;SDS011;58785;55.566;38.058;2023-01-23T12:35:18;20.17;;;6.18;;
71125;SDS011;58785;55.566;38.058;2023-01-23T12:38:09;22.17;;;7.05;;
71125;SDS011;58785;55.566;38.058;2023-01-23T12:40:49;21.67;;;6.30;;
71125;SDS011;58785;55.566;38.058;2023-01-23T12:49:32;20.75;;;6.57;;
71125;SDS011;58785;55.566;38.058;2023-01-23T12:52:05;19.98;;;7.50;;
71125;SDS011;58785;55.566;38.058;2023-01-23T12:54:36;26.08;;;7.68;;
71125;SDS011;58785;55.566;38.058;2023-01-23T12:57:07;21.67;;;6.83;;
71125;SDS011;58785;55.566;38.058;2023-01-23T13:02:05;23.23;;;7.20;;
71125;SDS011;58785;55.566;38.058;2023-01-23T13:07:38;22.48;;;6.47;;
71125;SDS011;58785;55.566;38.058;2023-01-23T13:13:22;24.10;;;7.53;;
71125;SDS011;58785;55.566;38.058;2023-01-23T13:18:52;23.63;;;7.85;;
71125;SDS011;58785;55.566;38.058;2023-01-23T13:21:38;19.40;;;6.65;;
71125;SDS011;58785;55.566;38.058;2023-01-23T13:30:00;21.77;;;6.37;;
71125;SDS011;58785;55.566;38.058;2023-01-23T13:32:28;24.38;;;6.28;;
71125;SDS011;58785;55.566;38.058;2023-01-23T13:34:54;22.55;;;7.38;;
71125;SDS011;58785;55.566;38.058;2023-01-23T13:40:10;19.88;;;6.53;;
71125;SDS011;58785;55.566;38.058;2023-01-23T13:42:42;17.95;;;6.32;;
71125;SDS011;58785;55.566;38.058;2023-01-23T13:45:19;22.45;;;6.25;;
71125;SDS011;58785;55.566;38.058;2023-01-23T13:50:39;21.27;;;6.45;;
71125;SDS011;58785;55.566;38.058;2023-01-23T13:53:13;22.05;;;6.85;;
71125;SDS011;58785;55.566;38.058;2023-01-23T13:56:01;25.15;;;6.85;;
71125;SDS011;58785;55.566;38.058;2023-01-23T13:58:47;22.40;;;7.80;;
71125;SDS011;58785;55.566;38.058;2023-01-23T14:01:15;20.33;;;6.13;;
71125;SDS011;58785;55.566;38.058;2023-01-23T14:04:09;25.70;;;5.68;;
71125;SDS011;58785;55.566;38.058;2023-01-23T14:07:01;23.38;;;7.00;;
71125;SDS011;58785;55.566;38.058;2023-01-23T14:09:27;20.55;;;6.18;;
71125;SDS011;58785;55.566;38.058;2023-01-23T14:11:58;26.60;;;8.53;;
71125;SDS011;58785;55.566;38.058;2023-01-23T14:14:36;26.10;;;8.40;;
71125;SDS011;58785;55.566;38.058;2023-01-23T14:17:38;27.23;;;9.00;;
71125;SDS011;58785;55.566;38.058;2023-01-23T14:20:12;23.47;;;8.60;;
71125;SDS011;58785;55.566;38.058;2023-01-23T14:22:42;24.83;;;7.85;;
71125;SDS011;58785;55.566;38.058;2023-01-23T14:25:13;21.77;;;6.60;;
71125;SDS011;58785;55.566;38.058;2023-01-23T14:27:41;22.00;;;7.10;;
71125;SDS011;58785;55.566;38.058;2023-01-23T14:30:14;20.13;;;6.67;;
71125;SDS011;58785;55.566;38.058;2023-01-23T14:32:42;25.20;;;6.95;;
71125;SDS011;58785;55.566;38.058;2023-01-23T14:35:23;19.13;;;7.00;;
71125;SDS011;58785;55.566;38.058;2023-01-23T14:37:51;21.00;;;7.13;;
71125;SDS011;58785;55.566;38.058;2023-01-23T14:40:20;25.80;;;8.30;;
71125;SDS011;58785;55.566;38.058;2023-01-23T14:43:21;29.35;;;7.30;;
71125;SDS011;58785;55.566;38.058;2023-01-23T14:45:47;17.13;;;6.28;;
71125;SDS011;58785;55.566;38.058;2023-01-23T14:48:16;26.92;;;7.85;;
71125;SDS011;58785;55.566;38.058;2023-01-23T14:50:45;21.27;;;6.32;;
71125;SDS011;58785;55.566;38.058;2023-01-23T14:53:14;23.07;;;7.47;;
71125;SDS011;58785;55.566;38.058;2023-01-23T14:55:41;23.40;;;7.25;;
71125;SDS011;58785;55.566;38.058;2023-01-23T14:58:22;21.00;;;6.47;;
71125;SDS011;58785;55.566;38.058;2023-01-23T15:00:49;22.50;;;5.70;;
71125;SDS011;58785;55.566;38.058;2023-01-23T15:03:33;20.23;;;6.65;;
71125;SDS011;58785;55.566;38.058;2023-01-23T15:05:59;19.42;;;7.28;;
71125;SDS011;58785;55.566;38.058;2023-01-23T15:08:31;20.17;;;6.55;;
71125;SDS011;58785;55.566;38.058;2023-01-23T15:10:58;21.27;;;5.47;;
71125;SDS011;58785;55.566;38.058;2023-01-23T15:16:28;18.83;;;6.20;;
71125;SDS011;58785;55.566;38.058;2023-01-23T15:19:03;19.40;;;6.78;;
71125;SDS011;58785;55.566;38.058;2023-01-23T15:21:33;20.33;;;6.18;;
71125;SDS011;58785;55.566;38.058;2023-01-23T15:26:32;18.77;;;6.50;;
71125;SDS011;58785;55.566;38.058;2023-01-23T15:36:38;18.88;;;6.43;;
71125;SDS011;58785;55.566;38.058;2023-01-23T15:39:20;20.42;;;6.07;;
71125;SDS011;58785;55.566;38.058;2023-01-23T15:41:59;22.23;;;6.93;;
71125;SDS011;58785;55.566;38.058;2023-01-23T15:44:46;21.45;;;6.72;;
71125;SDS011;58785;55.566;38.058;2023-01-23T15:47:12;20.07;;;6.20;;
71125;SDS011;58785;55.566;38.058;2023-01-23T15:49:38;21.67;;;6.37;;
71125;SDS011;58785;55.566;38.058;2023-01-23T15:52:24;19.08;;;6.93;;
71125;SDS011;58785;55.566;38.058;2023-01-23T15:54:53;21.85;;;6.38;;
71125;SDS011;58785;55.566;38.058;2023-01-23T15:57:25;18.10;;;5.80;;
71125;SDS011;58785;55.566;38.058;2023-01-23T15:59:50;19.90;;;6.40;;
71125;SDS011;58785;55.566;38.058;2023-01-23T16:02:20;20.33;;;6.53;;
71125;SDS011;58785;55.566;38.058;2023-01-23T16:04:47;21.47;;;6.93;;
71125;SDS011;58785;55.566;38.058;2023-01-23T16:07:28;24.00;;;7.38;;
71125;SDS011;58785;55.566;38.058;2023-01-23T16:09:54;23.05;;;6.95;;
71125;SDS011;58785;55.566;38.058;2023-01-23T16:12:21;20.17;;;5.80;;
71125;SDS011;58785;55.566;38.058;2023-01-23T16:14:52;18.13;;;6.57;;
71125;SDS011;58785;55.566;38.058;2023-01-23T16:17:19;23.63;;;7.13;;
71125;SDS011;58785;55.566;38.058;2023-01-23T16:19:44;21.98;;;7.35;;
71125;SDS011;58785;55.566;38.058;2023-01-23T16:22:11;18.57;;;7.57;;